sensor_id;sensor_type;location;lat;lon;timestamp;temperature;humidity
65040;HTU21D;51606;45.000;38.612;2022-07-19T04:23:24;23.31;56.20
65040;HTU21D;51606;45.000;38.612;2022-07-19T04:25:51;24.54;54.55
65040;HTU21D;51606;45.000;38.612;2022-07-19T04:28:17;25.97;52.87
65040;HTU21D;51606;45.000;38.612;2022-07-19T04:30:44;26.53;52.21
65040;HTU21D;51606;45.000;38.612;2022-07-19T04:33:13;26.87;52.17
65040;HTU21D;51606;45.000;38.612;2022-07-19T04:35:40;27.89;51.43
65040;HTU21D;51606;45.000;38.612;2022-07-19T04:38:07;27.88;51.50
65040;HTU21D;51606;45.000;38.612;2022-07-19T04:40:33;27.58;52.32
65040;HTU21D;51606;45.000;38.612;2022-07-19T04:42:59;27.72;52.33
65040;HTU21D;51606;45.000;38.612;2022-07-19T04:45:26;28.33;51.88
65040;HTU21D;51606;45.000;38.612;2022-07-19T04:47:52;29.57;50.46
65040;HTU21D;51606;45.000;38.612;2022-07-19T04:50:18;29.93;50.02
65040;HTU21D;51606;45.000;38.612;2022-07-19T04:52:45;29.61;50.82
65040;HTU21D;51606;45.000;38.612;2022-07-19T04:55:12;29.05;51.69
65040;HTU21D;51606;45.000;38.612;2022-07-19T04:57:39;29.38;51.50
65040;HTU21D;51606;45.000;38.612;2022-07-19T05:00:07;30.28;50.22
65040;HTU21D;51606;45.000;38.612;2022-07-19T05:02:38;31.16;49.21
65040;HTU21D;51606;45.000;38.612;2022-07-19T05:05:05;31.12;49.34
65040;HTU21D;51606;45.000;38.612;2022-07-19T05:07:31;31.21;49.41
65040;HTU21D;51606;45.000;38.612;2022-07-19T05:09:57;30.59;50.15
65040;HTU21D;51606;45.000;38.612;2022-07-19T05:12:24;29.90;51.08
65040;HTU21D;51606;45.000;38.612;2022-07-19T05:14:50;29.17;52.04
65040;HTU21D;51606;45.000;38.612;2022-07-19T05:17:16;28.46;52.98
65040;HTU21D;51606;45.000;38.612;2022-07-19T05:19:43;27.79;53.67
65040;HTU21D;51606;45.000;38.612;2022-07-19T05:22:09;27.54;53.88
65040;HTU21D;51606;45.000;38.612;2022-07-19T05:24:35;27.88;53.00
65040;HTU21D;51606;45.000;38.612;2022-07-19T05:27:02;27.97;52.44
65040;HTU21D;51606;45.000;38.612;2022-07-19T05:29:28;28.17;52.01
65040;HTU21D;51606;45.000;38.612;2022-07-19T05:31:54;28.20;51.69
65040;HTU21D;51606;45.000;38.612;2022-07-19T05:34:21;27.83;52.10
65040;HTU21D;51606;45.000;38.612;2022-07-19T05:36:47;27.44;52.59
65040;HTU21D;51606;45.000;38.612;2022-07-19T05:39:13;27.20;52.78
65040;HTU21D;51606;45.000;38.612;2022-07-19T05:41:41;26.96;53.01
65040;HTU21D;51606;45.000;38.612;2022-07-19T05:44:07;26.78;53.15
65040;HTU21D;51606;45.000;38.612;2022-07-19T05:46:33;26.68;53.16
65040;HTU21D;51606;45.000;38.612;2022-07-19T05:49:03;26.49;53.23
65040;HTU21D;51606;45.000;38.612;2022-07-19T05:51:29;26.18;53.56
65040;HTU21D;51606;45.000;38.612;2022-07-19T05:54:05;26.35;53.21
65040;HTU21D;51606;45.000;38.612;2022-07-19T05:56:32;26.54;52.66
65040;HTU21D;51606;45.000;38.612;2022-07-19T05:58:59;26.60;52.51
65040;HTU21D;51606;45.000;38.612;2022-07-19T06:01:25;26.70;52.38
65040;HTU21D;51606;45.000;38.612;2022-07-19T06:03:56;27.28;51.46
65040;HTU21D;51606;45.000;38.612;2022-07-19T06:06:24;27.34;51.27
65040;HTU21D;51606;45.000;38.612;2022-07-19T06:08:51;27.20;51.46
65040;HTU21D;51606;45.000;38.612;2022-07-19T06:11:17;27.55;51.08
65040;HTU21D;51606;45.000;38.612;2022-07-19T06:13:45;28.39;49.95
65040;HTU21D;51606;45.000;38.612;2022-07-19T06:16:11;29.83;48.22
65040;HTU21D;51606;45.000;38.612;2022-07-19T06:18:38;30.87;46.89
65040;HTU21D;51606;45.000;38.612;2022-07-19T06:21:07;30.77;47.29
65040;HTU21D;51606;45.000;38.612;2022-07-19T06:23:35;30.94;47.42
65040;HTU21D;51606;45.000;38.612;2022-07-19T06:26:02;30.95;47.38
65040;HTU21D;51606;45.000;38.612;2022-07-19T06:28:28;30.34;48.36
65040;HTU21D;51606;45.000;38.612;2022-07-19T06:30:55;30.10;48.72
65040;HTU21D;51606;45.000;38.612;2022-07-19T06:33:21;30.82;47.63
65040;HTU21D;51606;45.000;38.612;2022-07-19T06:35:48;30.50;47.84
65040;HTU21D;51606;45.000;38.612;2022-07-19T06:38:14;29.82;48.89
65040;HTU21D;51606;45.000;38.612;2022-07-19T06:40:41;29.90;48.92
65040;HTU21D;51606;45.000;38.612;2022-07-19T06:43:08;31.00;47.09
65040;HTU21D;51606;45.000;38.612;2022-07-19T06:45:38;31.79;45.86
65040;HTU21D;51606;45.000;38.612;2022-07-19T06:48:05;32.37;45.13
65040;HTU21D;51606;45.000;38.612;2022-07-19T06:50:31;32.23;45.51
65040;HTU21D;51606;45.000;38.612;2022-07-19T06:52:58;31.57;46.54
65040;HTU21D;51606;45.000;38.612;2022-07-19T06:55:25;30.74;47.76
65040;HTU21D;51606;45.000;38.612;2022-07-19T06:57:51;30.21;48.57
65040;HTU21D;51606;45.000;38.612;2022-07-19T07:00:18;30.01;48.82
65040;HTU21D;51606;45.000;38.612;2022-07-19T07:02:44;30.23;48.37
65040;HTU21D;51606;45.000;38.612;2022-07-19T07:05:11;30.10;48.36
65040;HTU21D;51606;45.000;38.612;2022-07-19T07:07:38;30.31;48.16
65040;HTU21D;51606;45.000;38.612;2022-07-19T07:10:06;30.74;47.47
65040;HTU21D;51606;45.000;38.612;2022-07-19T07:12:33;30.59;47.57
65040;HTU21D;51606;45.000;38.612;2022-07-19T07:15:00;30.27;47.98
65040;HTU21D;51606;45.000;38.612;2022-07-19T07:17:27;30.01;48.32
65040;HTU21D;51606;45.000;38.612;2022-07-19T07:19:53;29.60;48.73
65040;HTU21D;51606;45.000;38.612;2022-07-19T07:22:20;29.39;48.95
65040;HTU21D;51606;45.000;38.612;2022-07-19T07:24:46;29.36;48.79
65040;HTU21D;51606;45.000;38.612;2022-07-19T07:27:13;29.56;48.44
65040;HTU21D;51606;45.000;38.612;2022-07-19T07:29:39;29.88;47.81
65040;HTU21D;51606;45.000;38.612;2022-07-19T07:32:06;30.46;47.04
65040;HTU21D;51606;45.000;38.612;2022-07-19T07:34:33;30.87;46.41
65040;HTU21D;51606;45.000;38.612;2022-07-19T07:37:00;30.85;46.42
65040;HTU21D;51606;45.000;38.612;2022-07-19T07:39:26;30.64;46.80
65040;HTU21D;51606;45.000;38.612;2022-07-19T07:41:52;30.35;47.24
65040;HTU21D;51606;45.000;38.612;2022-07-19T07:44:18;29.80;47.96
65040;HTU21D;51606;45.000;38.612;2022-07-19T07:46:45;29.57;48.30
65040;HTU21D;51606;45.000;38.612;2022-07-19T07:49:11;29.26;48.53
65040;HTU21D;51606;45.000;38.612;2022-07-19T07:51:37;29.29;48.47
65040;HTU21D;51606;45.000;38.612;2022-07-19T07:54:04;29.37;48.13
65040;HTU21D;51606;45.000;38.612;2022-07-19T07:56:30;29.38;48.11
65040;HTU21D;51606;45.000;38.612;2022-07-19T07:58:56;29.23;48.18
65040;HTU21D;51606;45.000;38.612;2022-07-19T08:01:23;29.43;48.02
65040;HTU21D;51606;45.000;38.612;2022-07-19T08:03:49;29.79;47.42
65040;HTU21D;51606;45.000;38.612;2022-07-19T08:06:15;30.09;47.05
65040;HTU21D;51606;45.000;38.612;2022-07-19T08:08:42;30.36;46.73
65040;HTU21D;51606;45.000;38.612;2022-07-19T08:11:08;30.54;46.60
65040;HTU21D;51606;45.000;38.612;2022-07-19T08:13:34;30.85;46.33
65040;HTU21D;51606;45.000;38.612;2022-07-19T08:16:01;30.87;46.25
65040;HTU21D;51606;45.000;38.612;2022-07-19T08:18:27;30.42;46.93
65040;HTU21D;51606;45.000;38.612;2022-07-19T08:20:53;30.05;47.50
65040;HTU21D;51606;45.000;38.612;2022-07-19T08:23:20;30.13;47.44
65040;HTU21D;51606;45.000;38.612;2022-07-19T08:25:46;30.45;46.81
65040;HTU21D;51606;45.000;38.612;2022-07-19T08:28:13;30.32;46.92
65040;HTU21D;51606;45.000;38.612;2022-07-19T08:30:39;30.27;46.96
65040;HTU21D;51606;45.000;38.612;2022-07-19T08:33:05;30.50;46.68
65040;HTU21D;51606;45.000;38.612;2022-07-19T08:35:35;30.82;46.12
65040;HTU21D;51606;45.000;38.612;2022-07-19T08:38:01;31.18;45.74
65040;HTU21D;51606;45.000;38.612;2022-07-19T08:40:28;31.34;45.43
65040;HTU21D;51606;45.000;38.612;2022-07-19T08:42:57;31.28;45.56
65040;HTU21D;51606;45.000;38.612;2022-07-19T08:45:25;31.41;45.41
65040;HTU21D;51606;45.000;38.612;2022-07-19T08:47:52;31.52;45.25
65040;HTU21D;51606;45.000;38.612;2022-07-19T08:50:19;31.30;45.57
65040;HTU21D;51606;45.000;38.612;2022-07-19T08:52:47;31.25;45.72
65040;HTU21D;51606;45.000;38.612;2022-07-19T08:55:14;31.40;45.50
65040;HTU21D;51606;45.000;38.612;2022-07-19T08:57:40;31.37;45.50
65040;HTU21D;51606;45.000;38.612;2022-07-19T09:00:29;31.28;45.70
65040;HTU21D;51606;45.000;38.612;2022-07-19T09:02:59;31.19;45.83
65040;HTU21D;51606;45.000;38.612;2022-07-19T09:05:26;31.00;46.05
65040;HTU21D;51606;45.000;38.612;2022-07-19T09:10:27;30.69;46.27
65040;HTU21D;51606;45.000;38.612;2022-07-19T09:15:50;30.68;46.06
65040;HTU21D;51606;45.000;38.612;2022-07-19T09:20:57;30.74;45.98
65040;HTU21D;51606;45.000;38.612;2022-07-19T09:23:24;30.89;45.80
65040;HTU21D;51606;45.000;38.612;2022-07-19T09:25:59;30.79;45.89
65040;HTU21D;51606;45.000;38.612;2022-07-19T09:28:27;30.68;46.04
65040;HTU21D;51606;45.000;38.612;2022-07-19T09:30:56;30.71;46.07
65040;HTU21D;51606;45.000;38.612;2022-07-19T09:33:28;30.93;45.73
65040;HTU21D;51606;45.000;38.612;2022-07-19T09:36:03;30.89;45.76
65040;HTU21D;51606;45.000;38.612;2022-07-19T09:38:32;30.80;45.91
65040;HTU21D;51606;45.000;38.612;2022-07-19T09:41:17;30.61;46.15
65040;HTU21D;51606;45.000;38.612;2022-07-19T09:43:58;30.42;46.34
65040;HTU21D;51606;45.000;38.612;2022-07-19T09:46:40;30.27;46.55
65040;HTU21D;51606;45.000;38.612;2022-07-19T09:49:14;30.40;46.38
65040;HTU21D;51606;45.000;38.612;2022-07-19T09:51:51;30.56;46.08
65040;HTU21D;51606;45.000;38.612;2022-07-19T09:54:20;30.63;46.01
65040;HTU21D;51606;45.000;38.612;2022-07-19T09:56:48;30.63;46.06
65040;HTU21D;51606;45.000;38.612;2022-07-19T09:59:16;30.72;45.92
65040;HTU21D;51606;45.000;38.612;2022-07-19T10:01:44;30.69;45.96
65040;HTU21D;51606;45.000;38.612;2022-07-19T10:04:17;30.76;45.87
65040;HTU21D;51606;45.000;38.612;2022-07-19T10:06:45;30.69;45.92
65040;HTU21D;51606;45.000;38.612;2022-07-19T10:09:14;30.55;46.09
65040;HTU21D;51606;45.000;38.612;2022-07-19T10:11:41;30.40;46.28
65040;HTU21D;51606;45.000;38.612;2022-07-19T10:14:07;30.28;46.41
65040;HTU21D;51606;45.000;38.612;2022-07-19T10:19:26;30.11;46.47
65040;HTU21D;51606;45.000;38.612;2022-07-19T10:21:57;29.88;46.70
65040;HTU21D;51606;45.000;38.612;2022-07-19T10:24:47;29.89;46.61
65040;HTU21D;51606;45.000;38.612;2022-07-19T10:27:15;29.96;46.44
65040;HTU21D;51606;45.000;38.612;2022-07-19T10:29:42;30.08;46.18
65040;HTU21D;51606;45.000;38.612;2022-07-19T10:32:11;30.04;46.15
65040;HTU21D;51606;45.000;38.612;2022-07-19T10:34:40;29.96;46.25
65040;HTU21D;51606;45.000;38.612;2022-07-19T10:37:07;30.10;46.09
65040;HTU21D;51606;45.000;38.612;2022-07-19T10:39:36;30.20;45.91
65040;HTU21D;51606;45.000;38.612;2022-07-19T10:42:17;30.17;45.95
65040;HTU21D;51606;45.000;38.612;2022-07-19T10:45:13;30.23;45.89
65040;HTU21D;51606;45.000;38.612;2022-07-19T10:50:11;30.30;45.73
65040;HTU21D;51606;45.000;38.612;2022-07-19T10:52:41;30.12;45.98
65040;HTU21D;51606;45.000;38.612;2022-07-19T10:57:51;29.95;46.20
65040;HTU21D;51606;45.000;38.612;2022-07-19T11:00:26;29.93;46.16
65040;HTU21D;51606;45.000;38.612;2022-07-19T11:05:51;29.64;46.38
65040;HTU21D;51606;45.000;38.612;2022-07-19T11:08:34;29.58;46.40
65040;HTU21D;51606;45.000;38.612;2022-07-19T11:11:14;29.66;46.24
65040;HTU21D;51606;45.000;38.612;2022-07-19T11:13:46;29.73;46.13
65040;HTU21D;51606;45.000;38.612;2022-07-19T11:16:13;29.62;46.24
65040;HTU21D;51606;45.000;38.612;2022-07-19T11:18:40;29.49;46.41
65040;HTU21D;51606;45.000;38.612;2022-07-19T11:21:10;29.35;46.58
65040;HTU21D;51606;45.000;38.612;2022-07-19T11:23:40;29.15;46.80
65040;HTU21D;51606;45.000;38.612;2022-07-19T11:26:16;29.02;46.94
65040;HTU21D;51606;45.000;38.612;2022-07-19T11:28:50;28.98;46.93
65040;HTU21D;51606;45.000;38.612;2022-07-19T11:31:22;29.09;46.74
65040;HTU21D;51606;45.000;38.612;2022-07-19T11:33:50;29.47;46.19
65040;HTU21D;51606;45.000;38.612;2022-07-19T11:36:19;29.70;45.81
65040;HTU21D;51606;45.000;38.612;2022-07-19T11:38:51;29.74;45.76
65040;HTU21D;51606;45.000;38.612;2022-07-19T11:41:31;29.72;45.80
65040;HTU21D;51606;45.000;38.612;2022-07-19T11:44:04;29.60;45.97
65040;HTU21D;51606;45.000;38.612;2022-07-19T11:49:03;29.34;46.36
65040;HTU21D;51606;45.000;38.612;2022-07-19T11:51:30;29.30;46.43
65040;HTU21D;51606;45.000;38.612;2022-07-19T11:53:58;29.24;46.45
65040;HTU21D;51606;45.000;38.612;2022-07-19T11:56:31;29.15;46.59
65040;HTU21D;51606;45.000;38.612;2022-07-19T11:59:00;29.04;46.74
65040;HTU21D;51606;45.000;38.612;2022-07-19T12:01:33;29.01;46.73
65040;HTU21D;51606;45.000;38.612;2022-07-19T12:06:59;29.21;46.31
65040;HTU21D;51606;45.000;38.612;2022-07-19T12:09:57;29.14;46.34
65040;HTU21D;51606;45.000;38.612;2022-07-19T12:53:53;28.40;47.27
65040;HTU21D;51606;45.000;38.612;2022-07-19T12:56:20;28.54;47.16
65040;HTU21D;51606;45.000;38.612;2022-07-19T12:58:46;28.61;47.02
65040;HTU21D;51606;45.000;38.612;2022-07-19T13:01:51;28.63;47.02
65040;HTU21D;51606;45.000;38.612;2022-07-19T13:04:18;28.68;46.93
65040;HTU21D;51606;45.000;38.612;2022-07-19T13:06:44;28.61;47.00
65040;HTU21D;51606;45.000;38.612;2022-07-19T13:09:10;28.56;47.09
65040;HTU21D;51606;45.000;38.612;2022-07-19T13:11:37;28.50;47.18
65040;HTU21D;51606;45.000;38.612;2022-07-19T13:14:03;28.45;47.27
65040;HTU21D;51606;45.000;38.612;2022-07-19T13:16:32;28.34;47.42
65040;HTU21D;51606;45.000;38.612;2022-07-19T13:18:59;28.31;47.50
65040;HTU21D;51606;45.000;38.612;2022-07-19T13:21:25;28.47;47.24
65040;HTU21D;51606;45.000;38.612;2022-07-19T13:23:53;28.63;46.96
65040;HTU21D;51606;45.000;38.612;2022-07-19T13:26:19;28.69;46.94
65040;HTU21D;51606;45.000;38.612;2022-07-19T13:28:46;28.75;46.89
65040;HTU21D;51606;45.000;38.612;2022-07-19T13:31:12;28.63;47.09
65040;HTU21D;51606;45.000;38.612;2022-07-19T13:33:38;28.46;47.31
65040;HTU21D;51606;45.000;38.612;2022-07-19T13:36:05;28.46;47.28
65040;HTU21D;51606;45.000;38.612;2022-07-19T13:38:31;28.49;47.19
65040;HTU21D;51606;45.000;38.612;2022-07-19T13:40:58;28.53;47.10
65040;HTU21D;51606;45.000;38.612;2022-07-19T13:43:24;28.58;46.95
65040;HTU21D;51606;45.000;38.612;2022-07-19T13:45:50;28.73;46.79
65040;HTU21D;51606;45.000;38.612;2022-07-19T13:48:17;28.83;46.60
65040;HTU21D;51606;45.000;38.612;2022-07-19T13:50:43;28.83;46.57
65040;HTU21D;51606;45.000;38.612;2022-07-19T13:53:10;28.90;46.51
65040;HTU21D;51606;45.000;38.612;2022-07-19T13:55:36;28.90;46.48
65040;HTU21D;51606;45.000;38.612;2022-07-19T13:58:02;28.65;46.81
65040;HTU21D;51606;45.000;38.612;2022-07-19T14:00:29;28.43;47.16
65040;HTU21D;51606;45.000;38.612;2022-07-19T14:02:55;28.29;47.33
65040;HTU21D;51606;45.000;38.612;2022-07-19T14:05:21;28.14;47.45
65040;HTU21D;51606;45.000;38.612;2022-07-19T14:07:48;27.90;47.76
65040;HTU21D;51606;45.000;38.612;2022-07-19T14:10:15;27.69;48.01
65040;HTU21D;51606;45.000;38.612;2022-07-19T14:12:41;27.52;48.19
65040;HTU21D;51606;45.000;38.612;2022-07-19T14:15:07;27.35;48.37
65040;HTU21D;51606;45.000;38.612;2022-07-19T14:17:34;27.17;48.53
65040;HTU21D;51606;45.000;38.612;2022-07-19T14:20:00;27.01;48.66
65040;HTU21D;51606;45.000;38.612;2022-07-19T14:22:27;26.90;48.73
65040;HTU21D;51606;45.000;38.612;2022-07-19T14:24:53;26.76;48.83
65040;HTU21D;51606;45.000;38.612;2022-07-19T14:27:20;26.63;48.89
65040;HTU21D;51606;45.000;38.612;2022-07-19T14:29:46;26.54;48.96
65040;HTU21D;51606;45.000;38.612;2022-07-19T14:32:12;26.56;48.88
65040;HTU21D;51606;45.000;38.612;2022-07-19T14:34:39;26.56;48.75
65040;HTU21D;51606;45.000;38.612;2022-07-19T14:37:06;26.57;48.67
65040;HTU21D;51606;45.000;38.612;2022-07-19T14:39:32;26.60;48.62
65040;HTU21D;51606;45.000;38.612;2022-07-19T14:41:59;26.58;48.58
65040;HTU21D;51606;45.000;38.612;2022-07-19T14:44:26;26.57;48.59
65040;HTU21D;51606;45.000;38.612;2022-07-19T14:46:53;26.53;48.60
65040;HTU21D;51606;45.000;38.612;2022-07-19T14:49:22;26.50;48.65
65040;HTU21D;51606;45.000;38.612;2022-07-19T14:51:48;26.46;48.73
65040;HTU21D;51606;45.000;38.612;2022-07-19T14:54:15;26.43;48.79
65040;HTU21D;51606;45.000;38.612;2022-07-19T14:56:41;26.41;48.82
65040;HTU21D;51606;45.000;38.612;2022-07-19T14:59:07;26.42;48.83
65040;HTU21D;51606;45.000;38.612;2022-07-19T15:01:34;26.39;48.91
65040;HTU21D;51606;45.000;38.612;2022-07-19T15:04:00;26.38;48.96
65040;HTU21D;51606;45.000;38.612;2022-07-19T15:06:26;26.32;49.05
65040;HTU21D;51606;45.000;38.612;2022-07-19T15:08:52;26.26;49.15
65040;HTU21D;51606;45.000;38.612;2022-07-19T15:11:19;26.22;49.23
65040;HTU21D;51606;45.000;38.612;2022-07-19T15:13:45;26.19;49.30
65040;HTU21D;51606;45.000;38.612;2022-07-19T15:16:12;26.16;49.37
65040;HTU21D;51606;45.000;38.612;2022-07-19T15:18:38;26.13;49.41
65040;HTU21D;51606;45.000;38.612;2022-07-19T15:21:04;26.12;49.47
65040;HTU21D;51606;45.000;38.612;2022-07-19T15:23:32;26.04;49.58
65040;HTU21D;51606;45.000;38.612;2022-07-19T15:26:00;25.90;49.81
65040;HTU21D;51606;45.000;38.612;2022-07-19T15:28:26;25.80;49.99
65040;HTU21D;51606;45.000;38.612;2022-07-19T15:30:53;25.72;50.10
65040;HTU21D;51606;45.000;38.612;2022-07-19T15:33:19;25.62;50.24
65040;HTU21D;51606;45.000;38.612;2022-07-19T15:35:46;25.51;50.40
65040;HTU21D;51606;45.000;38.612;2022-07-19T15:38:12;25.40;50.55
65040;HTU21D;51606;45.000;38.612;2022-07-19T15:40:38;25.32;50.66
65040;HTU21D;51606;45.000;38.612;2022-07-19T15:43:05;25.27;50.70
65040;HTU21D;51606;45.000;38.612;2022-07-19T15:45:31;25.22;50.75
65040;HTU21D;51606;45.000;38.612;2022-07-19T15:47:58;25.16;50.82
65040;HTU21D;51606;45.000;38.612;2022-07-19T15:50:24;25.12;50.88
65040;HTU21D;51606;45.000;38.612;2022-07-19T15:52:50;25.06;50.93
65040;HTU21D;51606;45.000;38.612;2022-07-19T15:55:17;25.00;51.01
65040;HTU21D;51606;45.000;38.612;2022-07-19T15:57:43;24.95;51.10
65040;HTU21D;51606;45.000;38.612;2022-07-19T16:00:10;24.91;51.16
65040;HTU21D;51606;45.000;38.612;2022-07-19T16:02:37;24.86;51.26
65040;HTU21D;51606;45.000;38.612;2022-07-19T16:05:08;24.82;51.37
65040;HTU21D;51606;45.000;38.612;2022-07-19T16:07:53;24.74;51.43
65040;HTU21D;51606;45.000;38.612;2022-07-19T16:10:20;24.70;51.52
65040;HTU21D;51606;45.000;38.612;2022-07-19T16:12:46;24.66;51.59
65040;HTU21D;51606;45.000;38.612;2022-07-19T16:15:12;24.63;51.66
65040;HTU21D;51606;45.000;38.612;2022-07-19T16:17:39;24.60;51.73
65040;HTU21D;51606;45.000;38.612;2022-07-19T16:20:08;24.57;51.79
65040;HTU21D;51606;45.000;38.612;2022-07-19T16:22:36;24.56;51.88
65040;HTU21D;51606;45.000;38.612;2022-07-19T16:25:04;24.53;51.92
65040;HTU21D;51606;45.000;38.612;2022-07-19T16:27:30;24.50;52.01
65040;HTU21D;51606;45.000;38.612;2022-07-19T16:29:57;24.47;52.09
65040;HTU21D;51606;45.000;38.612;2022-07-19T16:32:23;24.44;52.18
65040;HTU21D;51606;45.000;38.612;2022-07-19T16:34:49;24.41;52.30
65040;HTU21D;51606;45.000;38.612;2022-07-19T16:37:17;24.34;52.44
65040;HTU21D;51606;45.000;38.612;2022-07-19T16:39:44;24.29;52.56
65040;HTU21D;51606;45.000;38.612;2022-07-19T16:42:11;24.25;52.69
65040;HTU21D;51606;45.000;38.612;2022-07-19T16:44:37;24.17;52.84
65040;HTU21D;51606;45.000;38.612;2022-07-19T16:47:04;24.11;52.95
65040;HTU21D;51606;45.000;38.612;2022-07-19T16:49:31;24.06;53.05
65040;HTU21D;51606;45.000;38.612;2022-07-19T16:51:58;24.00;53.15
65040;HTU21D;51606;45.000;38.612;2022-07-19T16:54:24;23.92;53.28
65040;HTU21D;51606;45.000;38.612;2022-07-19T16:56:51;23.86;53.38
65040;HTU21D;51606;45.000;38.612;2022-07-19T16:59:17;23.80;53.46
65040;HTU21D;51606;45.000;38.612;2022-07-19T17:01:44;23.70;53.59
65040;HTU21D;51606;45.000;38.612;2022-07-19T17:04:10;23.61;53.72
65040;HTU21D;51606;45.000;38.612;2022-07-19T17:06:36;23.54;53.84
65040;HTU21D;51606;45.000;38.612;2022-07-19T17:09:03;23.43;54.00
65040;HTU21D;51606;45.000;38.612;2022-07-19T17:11:32;23.32;54.17
65040;HTU21D;51606;45.000;38.612;2022-07-19T17:13:59;23.21;54.31
65040;HTU21D;51606;45.000;38.612;2022-07-19T17:16:25;23.08;54.50
65040;HTU21D;51606;45.000;38.612;2022-07-19T18:19:35;20.62;57.58
65040;HTU21D;51606;45.000;38.612;2022-07-19T18:22:02;20.51;57.80
65040;HTU21D;51606;45.000;38.612;2022-07-19T18:24:30;20.43;57.96
65040;HTU21D;51606;45.000;38.612;2022-07-19T18:26:56;20.33;58.13
65040;HTU21D;51606;45.000;38.612;2022-07-19T18:29:23;20.24;58.30
65040;HTU21D;51606;45.000;38.612;2022-07-19T18:31:51;20.16;58.47
65040;HTU21D;51606;45.000;38.612;2022-07-19T18:34:18;20.06;58.59
65040;HTU21D;51606;45.000;38.612;2022-07-19T18:36:45;20.01;58.70
65040;HTU21D;51606;45.000;38.612;2022-07-19T18:39:12;19.97;58.76
65040;HTU21D;51606;45.000;38.612;2022-07-19T18:41:38;19.91;58.83
65040;HTU21D;51606;45.000;38.612;2022-07-19T18:44:05;19.86;58.94
65040;HTU21D;51606;45.000;38.612;2022-07-19T18:46:32;19.81;59.06
65040;HTU21D;51606;45.000;38.612;2022-07-19T18:48:58;19.75;59.17
65040;HTU21D;51606;45.000;38.612;2022-07-19T18:51:25;19.66;59.28
65040;HTU21D;51606;45.000;38.612;2022-07-19T18:53:52;19.61;59.38
65040;HTU21D;51606;45.000;38.612;2022-07-19T18:56:18;19.56;59.47
65040;HTU21D;51606;45.000;38.612;2022-07-19T18:58:45;19.50;59.53
65040;HTU21D;51606;45.000;38.612;2022-07-19T19:01:12;19.48;59.57
65040;HTU21D;51606;45.000;38.612;2022-07-19T19:03:38;19.47;59.58
65040;HTU21D;51606;45.000;38.612;2022-07-19T19:06:05;19.45;59.60
65040;HTU21D;51606;45.000;38.612;2022-07-19T19:08:31;19.41;59.67
65040;HTU21D;51606;45.000;38.612;2022-07-19T19:10:57;19.38;59.72
65040;HTU21D;51606;45.000;38.612;2022-07-19T19:13:24;19.33;59.82
65040;HTU21D;51606;45.000;38.612;2022-07-19T19:15:51;19.30;59.88
65040;HTU21D;51606;45.000;38.612;2022-07-19T19:18:18;19.27;59.94
65040;HTU21D;51606;45.000;38.612;2022-07-19T19:20:46;19.22;60.04
65040;HTU21D;51606;45.000;38.612;2022-07-19T19:23:12;19.15;60.16
65040;HTU21D;51606;45.000;38.612;2022-07-19T19:25:40;19.10;60.29
65040;HTU21D;51606;45.000;38.612;2022-07-19T19:28:07;19.06;60.37
65040;HTU21D;51606;45.000;38.612;2022-07-19T19:30:33;18.97;60.49
65040;HTU21D;51606;45.000;38.612;2022-07-19T19:33:00;18.89;60.64
65040;HTU21D;51606;45.000;38.612;2022-07-19T19:35:28;18.85;60.74
65040;HTU21D;51606;45.000;38.612;2022-07-19T19:37:56;18.80;60.83
65040;HTU21D;51606;45.000;38.612;2022-07-19T19:40:23;18.76;60.89
65040;HTU21D;51606;45.000;38.612;2022-07-19T19:42:49;18.73;60.91
65040;HTU21D;51606;45.000;38.612;2022-07-19T19:45:15;18.70;60.95
65040;HTU21D;51606;45.000;38.612;2022-07-19T19:47:42;18.67;61.01
65040;HTU21D;51606;45.000;38.612;2022-07-19T19:50:10;18.64;61.07
65040;HTU21D;51606;45.000;38.612;2022-07-19T19:52:36;18.62;61.11
65040;HTU21D;51606;45.000;38.612;2022-07-19T19:55:03;18.59;61.15
65040;HTU21D;51606;45.000;38.612;2022-07-19T19:57:29;18.55;61.20
65040;HTU21D;51606;45.000;38.612;2022-07-19T19:59:56;18.52;61.26
65040;HTU21D;51606;45.000;38.612;2022-07-19T20:02:22;18.50;61.33
65040;HTU21D;51606;45.000;38.612;2022-07-19T20:04:49;18.50;61.35
65040;HTU21D;51606;45.000;38.612;2022-07-19T20:07:15;18.48;61.38
65040;HTU21D;51606;45.000;38.612;2022-07-19T20:09:42;18.44;61.44
65040;HTU21D;51606;45.000;38.612;2022-07-19T20:12:08;18.42;61.48
65040;HTU21D;51606;45.000;38.612;2022-07-19T20:14:35;18.42;61.49
65040;HTU21D;51606;45.000;38.612;2022-07-19T20:17:01;18.41;61.50
65040;HTU21D;51606;45.000;38.612;2022-07-19T20:22:31;18.42;61.50
65040;HTU21D;51606;45.000;38.612;2022-07-19T20:24:57;18.46;61.47
65040;HTU21D;51606;45.000;38.612;2022-07-19T20:27:24;18.50;61.41
65040;HTU21D;51606;45.000;38.612;2022-07-19T20:29:50;18.52;61.38
65040;HTU21D;51606;45.000;38.612;2022-07-19T20:32:16;18.53;61.41
65040;HTU21D;51606;45.000;38.612;2022-07-19T20:34:43;18.53;61.46
65040;HTU21D;51606;45.000;38.612;2022-07-19T20:37:09;18.54;61.50
65040;HTU21D;51606;45.000;38.612;2022-07-19T20:39:35;18.55;61.50
65040;HTU21D;51606;45.000;38.612;2022-07-19T20:42:02;18.56;61.54
65040;HTU21D;51606;45.000;38.612;2022-07-19T20:44:28;18.54;61.60
65040;HTU21D;51606;45.000;38.612;2022-07-19T20:46:54;18.52;61.67
65040;HTU21D;51606;45.000;38.612;2022-07-19T20:49:22;18.52;61.73
65040;HTU21D;51606;45.000;38.612;2022-07-19T20:51:48;18.53;61.76
65040;HTU21D;51606;45.000;38.612;2022-07-19T20:54:17;18.51;61.80
65040;HTU21D;51606;45.000;38.612;2022-07-19T20:56:44;18.49;61.89
65040;HTU21D;51606;45.000;38.612;2022-07-19T20:59:10;18.47;61.99
65040;HTU21D;51606;45.000;38.612;2022-07-19T21:01:38;18.46;62.05
65040;HTU21D;51606;45.000;38.612;2022-07-19T21:04:04;18.44;62.12
65040;HTU21D;51606;45.000;38.612;2022-07-19T21:06:31;18.46;62.15
65040;HTU21D;51606;45.000;38.612;2022-07-19T21:08:58;18.44;62.18
65040;HTU21D;51606;45.000;38.612;2022-07-19T21:11:24;18.47;62.18
65040;HTU21D;51606;45.000;38.612;2022-07-19T21:13:50;18.47;62.21
65040;HTU21D;51606;45.000;38.612;2022-07-19T21:16:17;18.48;62.23
65040;HTU21D;51606;45.000;38.612;2022-07-19T21:18:43;18.50;62.23
65040;HTU21D;51606;45.000;38.612;2022-07-19T21:21:09;18.53;62.22
65040;HTU21D;51606;45.000;38.612;2022-07-19T21:23:36;18.56;62.24
65040;HTU21D;51606;45.000;38.612;2022-07-19T21:26:03;18.58;62.24
65040;HTU21D;51606;45.000;38.612;2022-07-19T21:28:30;18.59;62.24
65040;HTU21D;51606;45.000;38.612;2022-07-19T21:30:56;18.63;62.25
65040;HTU21D;51606;45.000;38.612;2022-07-19T21:33:22;18.65;62.26
65040;HTU21D;51606;45.000;38.612;2022-07-19T21:35:48;18.67;62.30
65040;HTU21D;51606;45.000;38.612;2022-07-19T21:38:15;18.69;62.32